sensor_id;sensor_type;location;lat;lon;timestamp;P1;durP1;ratioP1;P2;durP2;ratioP2
9809;SDS011;4944;52.514;13.192;2023-07-29T00:00:45;5.23;;;4.77;;
9809;SDS011;4944;52.514;13.192;2023-07-29T00:03:12;5.07;;;4.77;;
9809;SDS011;4944;52.514;13.192;2023-07-29T00:05:40;5.67;;;5.10;;
9809;SDS011;4944;52.514;13.192;2023-07-29T00:08:07;4.63;;;4.30;;
9809;SDS011;4944;52.514;13.192;2023-07-29T00:10:35;5.30;;;4.90;;
9809;SDS011;4944;52.514;13.192;2023-07-29T00:13:03;5.57;;;5.07;;
9809;SDS011;4944;52.514;13.192;2023-07-29T00:15:30;5.73;;;5.07;;
9809;SDS011;4944;52.514;13.192;2023-07-29T00:17:57;5.13;;;4.83;;
9809;SDS011;4944;52.514;13.192;2023-07-29T00:20:24;6.03;;;4.80;;
9809;SDS011;4944;52.514;13.192;2023-07-29T00:22:52;6.10;;;5.53;;
9809;SDS011;4944;52.514;13.192;2023-07-29T00:25:20;5.50;;;4.93;;
9809;SDS011;4944;52.514;13.192;2023-07-29T00:27:47;5.90;;;5.40;;
9809;SDS011;4944;52.514;13.192;2023-07-29T00:30:14;5.30;;;4.90;;
9809;SDS011;4944;52.514;13.192;2023-07-29T00:32:40;5.53;;;5.07;;
9809;SDS011;4944;52.514;13.192;2023-07-29T00:35:08;4.83;;;4.57;;
9809;SDS011;4944;52.514;13.192;2023-07-29T00:37:35;5.23;;;4.93;;
9809;SDS011;4944;52.514;13.192;2023-07-29T00:40:04;5.20;;;4.90;;
9809;SDS011;4944;52.514;13.192;2023-07-29T00:42:38;5.63;;;5.10;;
9809;SDS011;4944;52.514;13.192;2023-07-29T00:45:08;4.83;;;4.53;;
9809;SDS011;4944;52.514;13.192;2023-07-29T00:47:35;4.90;;;4.60;;
9809;SDS011;4944;52.514;13.192;2023-07-29T00:50:02;6.40;;;5.30;;
9809;SDS011;4944;52.514;13.192;2023-07-29T00:52:29;5.40;;;4.97;;
9809;SDS011;4944;52.514;13.192;2023-07-29T00:54:56;6.07;;;5.50;;
9809;SDS011;4944;52.514;13.192;2023-07-29T00:57:24;5.33;;;4.93;;
9809;SDS011;4944;52.514;13.192;2023-07-29T00:59:52;5.80;;;5.30;;
9809;SDS011;4944;52.514;13.192;2023-07-29T01:02:19;5.33;;;4.83;;
9809;SDS011;4944;52.514;13.192;2023-07-29T01:04:46;5.97;;;5.20;;
9809;SDS011;4944;52.514;13.192;2023-07-29T01:07:19;5.10;;;4.63;;
9809;SDS011;4944;52.514;13.192;2023-07-29T01:09:50;4.80;;;4.50;;
9809;SDS011;4944;52.514;13.192;2023-07-29T01:12:27;4.77;;;4.37;;
9809;SDS011;4944;52.514;13.192;2023-07-29T01:15:01;4.33;;;4.03;;
9809;SDS011;4944;52.514;13.192;2023-07-29T01:17:36;4.67;;;4.13;;
9809;SDS011;4944;52.514;13.192;2023-07-29T01:20:09;4.97;;;4.67;;
9809;SDS011;4944;52.514;13.192;2023-07-29T01:22:40;4.73;;;4.43;;
9809;SDS011;4944;52.514;13.192;2023-07-29T01:25:08;4.30;;;4.00;;
9809;SDS011;4944;52.514;13.192;2023-07-29T01:27:35;4.80;;;4.50;;
9809;SDS011;4944;52.514;13.192;2023-07-29T01:30:02;4.53;;;4.23;;
9809;SDS011;4944;52.514;13.192;2023-07-29T01:32:33;4.80;;;4.40;;
9809;SDS011;4944;52.514;13.192;2023-07-29T01:35:07;4.10;;;3.90;;
9809;SDS011;4944;52.514;13.192;2023-07-29T01:37:41;4.67;;;4.37;;
9809;SDS011;4944;52.514;13.192;2023-07-29T01:40:11;4.33;;;4.03;;
9809;SDS011;4944;52.514;13.192;2023-07-29T01:42:39;4.63;;;4.33;;
9809;SDS011;4944;52.514;13.192;2023-07-29T01:45:06;4.47;;;4.27;;
9809;SDS011;4944;52.514;13.192;2023-07-29T01:47:33;4.30;;;4.00;;
9809;SDS011;4944;52.514;13.192;2023-07-29T01:50:00;4.90;;;4.60;;
9809;SDS011;4944;52.514;13.192;2023-07-29T01:52:28;4.80;;;4.40;;
9809;SDS011;4944;52.514;13.192;2023-07-29T01:54:55;4.67;;;4.30;;
9809;SDS011;4944;52.514;13.192;2023-07-29T01:57:23;4.80;;;4.50;;
9809;SDS011;4944;52.514;13.192;2023-07-29T01:59:50;5.20;;;4.70;;
9809;SDS011;4944;52.514;13.192;2023-07-29T02:02:17;5.17;;;4.67;;
9809;SDS011;4944;52.514;13.192;2023-07-29T02:04:44;4.73;;;4.43;;
9809;SDS011;4944;52.514;13.192;2023-07-29T02:07:16;4.97;;;4.77;;
9809;SDS011;4944;52.514;13.192;2023-07-29T02:09:43;5.00;;;4.60;;
9809;SDS011;4944;52.514;13.192;2023-07-29T02:12:10;5.37;;;4.97;;
9809;SDS011;4944;52.514;13.192;2023-07-29T02:14:38;5.83;;;5.20;;
9809;SDS011;4944;52.514;13.192;2023-07-29T02:17:05;6.40;;;5.23;;
9809;SDS011;4944;52.514;13.192;2023-07-29T02:19:32;5.40;;;5.10;;
9809;SDS011;4944;52.514;13.192;2023-07-29T02:21:59;5.30;;;5.00;;
9809;SDS011;4944;52.514;13.192;2023-07-29T02:24:26;5.03;;;4.73;;
9809;SDS011;4944;52.514;13.192;2023-07-29T02:26:53;5.37;;;4.90;;
9809;SDS011;4944;52.514;13.192;2023-07-29T02:29:20;5.40;;;5.00;;
9809;SDS011;4944;52.514;13.192;2023-07-29T02:31:49;5.27;;;4.97;;
9809;SDS011;4944;52.514;13.192;2023-07-29T02:34:15;5.80;;;5.33;;
9809;SDS011;4944;52.514;13.192;2023-07-29T02:36:42;5.10;;;4.57;;
9809;SDS011;4944;52.514;13.192;2023-07-29T02:39:10;5.47;;;5.03;;
9809;SDS011;4944;52.514;13.192;2023-07-29T02:41:37;4.80;;;4.40;;
9809;SDS011;4944;52.514;13.192;2023-07-29T02:44:04;5.00;;;4.70;;
9809;SDS011;4944;52.514;13.192;2023-07-29T02:46:31;5.17;;;4.87;;
9809;SDS011;4944;52.514;13.192;2023-07-29T02:49:01;4.70;;;4.40;;
9809;SDS011;4944;52.514;13.192;2023-07-29T02:51:28;4.90;;;4.60;;
9809;SDS011;4944;52.514;13.192;2023-07-29T02:53:55;4.87;;;4.47;;
9809;SDS011;4944;52.514;13.192;2023-07-29T02:56:23;4.93;;;4.63;;
9809;SDS011;4944;52.514;13.192;2023-07-29T02:58:50;6.70;;;5.47;;
9809;SDS011;4944;52.514;13.192;2023-07-29T03:01:17;5.47;;;5.17;;
9809;SDS011;4944;52.514;13.192;2023-07-29T03:03:44;5.43;;;5.03;;
9809;SDS011;4944;52.514;13.192;2023-07-29T03:06:13;5.50;;;5.07;;
9809;SDS011;4944;52.514;13.192;2023-07-29T03:08:40;5.00;;;4.60;;
9809;SDS011;4944;52.514;13.192;2023-07-29T03:11:07;5.30;;;5.00;;
9809;SDS011;4944;52.514;13.192;2023-07-29T03:13:35;6.77;;;4.87;;
9809;SDS011;4944;52.514;13.192;2023-07-29T03:16:05;5.00;;;4.70;;
9809;SDS011;4944;52.514;13.192;2023-07-29T03:18:33;5.23;;;4.93;;
9809;SDS011;4944;52.514;13.192;2023-07-29T03:21:00;6.17;;;5.27;;
9809;SDS011;4944;52.514;13.192;2023-07-29T03:23:29;5.60;;;5.20;;
9809;SDS011;4944;52.514;13.192;2023-07-29T03:25:56;5.73;;;5.33;;
9809;SDS011;4944;52.514;13.192;2023-07-29T03:28:23;5.40;;;5.10;;
9809;SDS011;4944;52.514;13.192;2023-07-29T03:30:52;5.80;;;5.40;;
9809;SDS011;4944;52.514;13.192;2023-07-29T03:33:19;5.43;;;4.97;;
9809;SDS011;4944;52.514;13.192;2023-07-29T03:35:46;5.10;;;4.80;;
9809;SDS011;4944;52.514;13.192;2023-07-29T03:38:13;5.07;;;4.73;;
9809;SDS011;4944;52.514;13.192;2023-07-29T03:40:41;5.27;;;4.87;;
9809;SDS011;4944;52.514;13.192;2023-07-29T03:43:09;5.23;;;4.93;;
9809;SDS011;4944;52.514;13.192;2023-07-29T03:45:36;5.30;;;4.90;;
9809;SDS011;4944;52.514;13.192;2023-07-29T03:48:04;5.40;;;5.10;;
9809;SDS011;4944;52.514;13.192;2023-07-29T03:50:32;5.70;;;5.40;;
9809;SDS011;4944;52.514;13.192;2023-07-29T03:53:00;5.03;;;4.80;;
9809;SDS011;4944;52.514;13.192;2023-07-29T03:55:27;5.50;;;5.10;;
9809;SDS011;4944;52.514;13.192;2023-07-29T03:57:56;5.90;;;5.50;;
9809;SDS011;4944;52.514;13.192;2023-07-29T04:00:23;5.30;;;5.00;;
9809;SDS011;4944;52.514;13.192;2023-07-29T04:02:50;5.53;;;5.23;;
9809;SDS011;4944;52.514;13.192;2023-07-29T04:05:17;5.33;;;5.03;;
9809;SDS011;4944;52.514;13.192;2023-07-29T04:07:44;4.97;;;4.77;;
9809;SDS011;4944;52.514;13.192;2023-07-29T04:10:12;5.27;;;4.97;;
9809;SDS011;4944;52.514;13.192;2023-07-29T04:12:39;5.33;;;4.90;;
9809;SDS011;4944;52.514;13.192;2023-07-29T04:15:08;6.13;;;5.57;;
9809;SDS011;4944;52.514;13.192;2023-07-29T04:17:35;5.53;;;5.20;;
9809;SDS011;4944;52.514;13.192;2023-07-29T04:20:02;5.60;;;5.20;;
9809;SDS011;4944;52.514;13.192;2023-07-29T04:22:30;5.43;;;5.13;;
9809;SDS011;4944;52.514;13.192;2023-07-29T04:24:57;5.87;;;5.47;;
9809;SDS011;4944;52.514;13.192;2023-07-29T04:27:24;5.53;;;5.23;;
9809;SDS011;4944;52.514;13.192;2023-07-29T04:29:50;5.33;;;5.03;;
9809;SDS011;4944;52.514;13.192;2023-07-29T04:32:19;5.00;;;4.70;;
9809;SDS011;4944;52.514;13.192;2023-07-29T04:34:46;5.73;;;5.33;;
9809;SDS011;4944;52.514;13.192;2023-07-29T04:37:12;5.80;;;5.30;;
9809;SDS011;4944;52.514;13.192;2023-07-29T04:39:39;6.30;;;5.70;;
9809;SDS011;4944;52.514;13.192;2023-07-29T04:42:06;5.90;;;5.60;;
9809;SDS011;4944;52.514;13.192;2023-07-29T04:44:33;6.10;;;5.80;;
9809;SDS011;4944;52.514;13.192;2023-07-29T04:47:00;5.70;;;5.40;;
9809;SDS011;4944;52.514;13.192;2023-07-29T04:49:28;6.43;;;6.00;;
9809;SDS011;4944;52.514;13.192;2023-07-29T04:51:55;6.27;;;5.93;;
9809;SDS011;4944;52.514;13.192;2023-07-29T04:54:22;6.27;;;5.87;;
9809;SDS011;4944;52.514;13.192;2023-07-29T04:56:49;6.43;;;5.83;;
9809;SDS011;4944;52.514;13.192;2023-07-29T04:59:16;5.90;;;5.40;;
9809;SDS011;4944;52.514;13.192;2023-07-29T05:01:43;6.40;;;5.90;;
9809;SDS011;4944;52.514;13.192;2023-07-29T05:04:09;6.47;;;5.97;;
9809;SDS011;4944;52.514;13.192;2023-07-29T05:06:38;5.90;;;5.50;;
9809;SDS011;4944;52.514;13.192;2023-07-29T05:09:14;6.00;;;5.60;;
9809;SDS011;4944;52.514;13.192;2023-07-29T05:11:41;6.70;;;5.97;;
9809;SDS011;4944;52.514;13.192;2023-07-29T05:14:08;6.03;;;5.67;;
9809;SDS011;4944;52.514;13.192;2023-07-29T05:16:35;6.57;;;6.03;;
9809;SDS011;4944;52.514;13.192;2023-07-29T05:19:02;6.93;;;6.23;;
9809;SDS011;4944;52.514;13.192;2023-07-29T05:21:29;5.83;;;5.33;;
9809;SDS011;4944;52.514;13.192;2023-07-29T05:23:57;6.30;;;5.80;;
9809;SDS011;4944;52.514;13.192;2023-07-29T05:26:24;5.87;;;5.47;;
9809;SDS011;4944;52.514;13.192;2023-07-29T05:28:51;6.23;;;5.77;;
9809;SDS011;4944;52.514;13.192;2023-07-29T05:31:18;5.93;;;5.53;;
9809;SDS011;4944;52.514;13.192;2023-07-29T05:33:45;5.90;;;5.50;;
9809;SDS011;4944;52.514;13.192;2023-07-29T05:36:12;6.47;;;5.97;;
9809;SDS011;4944;52.514;13.192;2023-07-29T05:38:39;6.57;;;5.93;;
9809;SDS011;4944;52.514;13.192;2023-07-29T05:41:07;5.77;;;5.43;;
9809;SDS011;4944;52.514;13.192;2023-07-29T05:43:34;6.07;;;5.67;;
9809;SDS011;4944;52.514;13.192;2023-07-29T05:46:01;6.43;;;5.80;;
9809;SDS011;4944;52.514;13.192;2023-07-29T05:48:27;7.03;;;6.53;;
9809;SDS011;4944;52.514;13.192;2023-07-29T05:50:54;6.77;;;6.20;;
9809;SDS011;4944;52.514;13.192;2023-07-29T05:53:21;6.50;;;6.10;;
9809;SDS011;4944;52.514;13.192;2023-07-29T05:55:48;6.77;;;6.37;;
9809;SDS011;4944;52.514;13.192;2023-07-29T05:58:16;6.50;;;6.00;;
9809;SDS011;4944;52.514;13.192;2023-07-29T06:00:43;5.90;;;5.60;;
9809;SDS011;4944;52.514;13.192;2023-07-29T06:03:10;6.40;;;6.00;;
9809;SDS011;4944;52.514;13.192;2023-07-29T06:05:37;6.30;;;5.90;;
9809;SDS011;4944;52.514;13.192;2023-07-29T06:08:04;7.03;;;6.33;;
9809;SDS011;4944;52.514;13.192;2023-07-29T06:10:33;7.00;;;6.23;;
9809;SDS011;4944;52.514;13.192;2023-07-29T06:13:00;5.93;;;5.43;;
9809;SDS011;4944;52.514;13.192;2023-07-29T06:15:28;6.50;;;5.93;;
9809;SDS011;4944;52.514;13.192;2023-07-29T06:17:55;5.77;;;5.47;;
9809;SDS011;4944;52.514;13.192;2023-07-29T06:20:22;5.93;;;5.60;;
9809;SDS011;4944;52.514;13.192;2023-07-29T06:22:49;6.40;;;5.90;;
9809;SDS011;4944;52.514;13.192;2023-07-29T06:25:16;6.00;;;5.70;;
9809;SDS011;4944;52.514;13.192;2023-07-29T06:27:43;6.00;;;5.50;;
9809;SDS011;4944;52.514;13.192;2023-07-29T06:30:10;6.10;;;5.70;;
9809;SDS011;4944;52.514;13.192;2023-07-29T06:32:38;6.20;;;5.70;;
9809;SDS011;4944;52.514;13.192;2023-07-29T06:35:05;6.73;;;6.10;;
9809;SDS011;4944;52.514;13.192;2023-07-29T06:37:33;5.97;;;5.57;;
9809;SDS011;4944;52.514;13.192;2023-07-29T06:39:59;6.03;;;5.63;;
9809;SDS011;4944;52.514;13.192;2023-07-29T06:42:26;6.70;;;6.10;;
9809;SDS011;4944;52.514;13.192;2023-07-29T06:44:53;6.00;;;5.50;;
9809;SDS011;4944;52.514;13.192;2023-07-29T06:47:20;5.73;;;5.33;;
9809;SDS011;4944;52.514;13.192;2023-07-29T06:49:48;5.70;;;5.37;;
9809;SDS011;4944;52.514;13.192;2023-07-29T06:52:15;5.83;;;5.33;;
9809;SDS011;4944;52.514;13.192;2023-07-29T06:54:42;6.07;;;5.57;;
9809;SDS011;4944;52.514;13.192;2023-07-29T06:57:09;4.77;;;4.33;;
9809;SDS011;4944;52.514;13.192;2023-07-29T06:59:36;5.10;;;4.70;;
9809;SDS011;4944;52.514;13.192;2023-07-29T07:02:03;5.27;;;4.87;;
9809;SDS011;4944;52.514;13.192;2023-07-29T07:04:30;4.90;;;4.43;;
9809;SDS011;4944;52.514;13.192;2023-07-29T07:06:59;4.57;;;4.30;;
9809;SDS011;4944;52.514;13.192;2023-07-29T07:09:25;4.67;;;4.27;;
9809;SDS011;4944;52.514;13.192;2023-07-29T07:11:52;4.90;;;4.63;;
9809;SDS011;4944;52.514;13.192;2023-07-29T07:14:19;4.73;;;4.40;;
9809;SDS011;4944;52.514;13.192;2023-07-29T07:16:46;4.33;;;4.03;;
9809;SDS011;4944;52.514;13.192;2023-07-29T07:19:13;4.80;;;4.40;;
9809;SDS011;4944;52.514;13.192;2023-07-29T07:21:40;4.33;;;4.07;;
9809;SDS011;4944;52.514;13.192;2023-07-29T07:24:08;4.77;;;4.37;;
9809;SDS011;4944;52.514;13.192;2023-07-29T07:26:35;6.20;;;5.80;;
9809;SDS011;4944;52.514;13.192;2023-07-29T07:29:02;8.40;;;7.60;;
9809;SDS011;4944;52.514;13.192;2023-07-29T07:31:32;5.70;;;5.30;;
9809;SDS011;4944;52.514;13.192;2023-07-29T07:33:59;4.70;;;4.30;;
9809;SDS011;4944;52.514;13.192;2023-07-29T07:36:27;4.73;;;4.33;;
9809;SDS011;4944;52.514;13.192;2023-07-29T07:38:55;4.33;;;4.03;;
9809;SDS011;4944;52.514;13.192;2023-07-29T07:41:23;4.23;;;3.93;;
9809;SDS011;4944;52.514;13.192;2023-07-29T07:43:50;3.80;;;3.60;;
9809;SDS011;4944;52.514;13.192;2023-07-29T07:46:17;4.00;;;3.60;;
9809;SDS011;4944;52.514;13.192;2023-07-29T07:48:44;3.63;;;3.43;;
9809;SDS011;4944;52.514;13.192;2023-07-29T07:51:10;4.07;;;3.63;;
9809;SDS011;4944;52.514;13.192;2023-07-29T07:53:38;3.60;;;3.40;;
9809;SDS011;4944;52.514;13.192;2023-07-29T07:56:05;2.90;;;2.80;;
9809;SDS011;4944;52.514;13.192;2023-07-29T07:58:34;2.90;;;2.80;;
9809;SDS011;4944;52.514;13.192;2023-07-29T08:01:01;2.90;;;2.70;;
9809;SDS011;4944;52.514;13.192;2023-07-29T08:03:29;3.30;;;3.10;;
9809;SDS011;4944;52.514;13.192;2023-07-29T08:05:56;3.10;;;3.00;;
9809;SDS011;4944;52.514;13.192;2023-07-29T08:08:23;3.00;;;2.70;;
9809;SDS011;4944;52.514;13.192;2023-07-29T08:10:51;3.00;;;2.83;;
9809;SDS011;4944;52.514;13.192;2023-07-29T08:13:18;3.00;;;2.90;;
9809;SDS011;4944;52.514;13.192;2023-07-29T08:15:47;3.20;;;3.00;;
9809;SDS011;4944;52.514;13.192;2023-07-29T08:18:14;3.17;;;3.03;;
9809;SDS011;4944;52.514;13.192;2023-07-29T08:20:41;3.58;;;3.30;;
9809;SDS011;4944;52.514;13.192;2023-07-29T08:23:17;3.55;;;3.35;;
9809;SDS011;4944;52.514;13.192;2023-07-29T08:25:44;3.05;;;2.92;;
9809;SDS011;4944;52.514;13.192;2023-07-29T08:28:15;3.53;;;3.33;;
9809;SDS011;4944;52.514;13.192;2023-07-29T08:30:42;3.22;;;3.03;;
9809;SDS011;4944;52.514;13.192;2023-07-29T08:33:10;3.10;;;3.00;;
9809;SDS011;4944;52.514;13.192;2023-07-29T08:35:37;3.47;;;3.17;;
9809;SDS011;4944;52.514;13.192;2023-07-29T08:38:04;4.13;;;3.50;;
9809;SDS011;4944;52.514;13.192;2023-07-29T08:40:31;3.47;;;3.10;;
9809;SDS011;4944;52.514;13.192;2023-07-29T08:43:00;3.20;;;3.00;;
9809;SDS011;4944;52.514;13.192;2023-07-29T08:45:31;2.80;;;2.60;;
9809;SDS011;4944;52.514;13.192;2023-07-29T08:48:02;3.75;;;3.45;;
9809;SDS011;4944;52.514;13.192;2023-07-29T08:50:32;3.00;;;2.90;;
9809;SDS011;4944;52.514;13.192;2023-07-29T08:53:01;2.90;;;2.78;;
9809;SDS011;4944;52.514;13.192;2023-07-29T08:55:30;3.50;;;3.20;;
9809;SDS011;4944;52.514;13.192;2023-07-29T08:57:58;2.65;;;2.55;;
9809;SDS011;4944;52.514;13.192;2023-07-29T09:00:26;3.40;;;3.20;;
9809;SDS011;4944;52.514;13.192;2023-07-29T09:02:53;3.33;;;3.03;;
9809;SDS011;4944;52.514;13.192;2023-07-29T09:05:20;3.17;;;2.97;;
9809;SDS011;4944;52.514;13.192;2023-07-29T09:07:49;3.22;;;3.13;;
9809;SDS011;4944;52.514;13.192;2023-07-29T09:10:18;4.57;;;4.28;;
9809;SDS011;4944;52.514;13.192;2023-07-29T09:12:49;6.20;;;5.10;;
9809;SDS011;4944;52.514;13.192;2023-07-29T09:15:25;4.50;;;4.20;;
9809;SDS011;4944;52.514;13.192;2023-07-29T09:17:55;2.70;;;2.60;;
9809;SDS011;4944;52.514;13.192;2023-07-29T09:20:25;2.70;;;2.60;;
9809;SDS011;4944;52.514;13.192;2023-07-29T09:22:54;3.17;;;3.08;;
9809;SDS011;4944;52.514;13.192;2023-07-29T09:25:24;2.65;;;2.55;;
9809;SDS011;4944;52.514;13.192;2023-07-29T09:27:51;2.67;;;2.58;;
9809;SDS011;4944;52.514;13.192;2023-07-29T09:30:18;2.67;;;2.58;;
9809;SDS011;4944;52.514;13.192;2023-07-29T09:32:45;2.47;;;2.38;;
9809;SDS011;4944;52.514;13.192;2023-07-29T09:35:12;2.60;;;2.50;;
9809;SDS011;4944;52.514;13.192;2023-07-29T09:37:39;2.67;;;2.58;;
9809;SDS011;4944;52.514;13.192;2023-07-29T09:40:12;2.53;;;2.33;;
9809;SDS011;4944;52.514;13.192;2023-07-29T09:42:47;2.63;;;2.38;;
9809;SDS011;4944;52.514;13.192;2023-07-29T09:45:19;2.55;;;2.45;;
9809;SDS011;4944;52.514;13.192;2023-07-29T09:47:47;2.38;;;2.28;;
9809;SDS011;4944;52.514;13.192;2023-07-29T09:50:14;2.60;;;2.50;;
9809;SDS011;4944;52.514;13.192;2023-07-29T09:52:41;2.42;;;2.33;;
9809;SDS011;4944;52.514;13.192;2023-07-29T09:55:11;2.92;;;2.63;;
9809;SDS011;4944;52.514;13.192;2023-07-29T09:57:39;2.58;;;2.40;;
9809;SDS011;4944;52.514;13.192;2023-07-29T10:00:07;2.83;;;2.72;;
9809;SDS011;4944;52.514;13.192;2023-07-29T10:02:37;2.60;;;2.45;;
9809;SDS011;4944;52.514;13.192;2023-07-29T10:05:05;2.53;;;2.42;;
9809;SDS011;4944;52.514;13.192;2023-07-29T10:07:34;2.60;;;2.50;;
9809;SDS011;4944;52.514;13.192;2023-07-29T10:10:02;2.55;;;2.45;;
9809;SDS011;4944;52.514;13.192;2023-07-29T10:12:33;2.45;;;2.35;;
9809;SDS011;4944;52.514;13.192;2023-07-29T10:15:02;2.65;;;2.55;;
9809;SDS011;4944;52.514;13.192;2023-07-29T10:17:30;2.45;;;2.35;;
9809;SDS011;4944;52.514;13.192;2023-07-29T10:19:59;2.15;;;2.05;;
9809;SDS011;4944;52.514;13.192;2023-07-29T10:22:28;2.40;;;2.30;;
9809;SDS011;4944;52.514;13.192;2023-07-29T10:25:03;2.65;;;2.55;;
9809;SDS011;4944;52.514;13.192;2023-07-29T10:27:37;2.42;;;2.33;;
9809;SDS011;4944;52.514;13.192;2023-07-29T10:30:10;2.30;;;2.20;;
9809;SDS011;4944;52.514;13.192;2023-07-29T10:32:38;2.67;;;2.40;;
9809;SDS011;4944;52.514;13.192;2023-07-29T10:35:09;8.20;;;7.47;;
9809;SDS011;4944;52.514;13.192;2023-07-29T10:37:37;5.32;;;4.93;;
9809;SDS011;4944;52.514;13.192;2023-07-29T10:40:06;3.80;;;2.42;;
9809;SDS011;4944;52.514;13.192;2023-07-29T10:42:35;2.40;;;2.20;;
9809;SDS011;4944;52.514;13.192;2023-07-29T10:45:18;2.20;;;2.10;;
9809;SDS011;4944;52.514;13.192;2023-07-29T10:47:46;2.40;;;2.30;;
9809;SDS011;4944;52.514;13.192;2023-07-29T10:50:17;2.35;;;2.25;;
9809;SDS011;4944;52.514;13.192;2023-07-29T10:52:48;2.50;;;2.40;;
9809;SDS011;4944;52.514;13.192;2023-07-29T10:55:24;2.65;;;2.55;;
9809;SDS011;4944;52.514;13.192;2023-07-29T10:58:05;6.95;;;3.10;;
9809;SDS011;4944;52.514;13.192;2023-07-29T11:00:37;6.73;;;3.27;;
9809;SDS011;4944;52.514;13.192;2023-07-29T11:03:05;11.70;;;3.83;;
9809;SDS011;4944;52.514;13.192;2023-07-29T11:05:42;6.53;;;3.30;;
9809;SDS011;4944;52.514;13.192;2023-07-29T11:08:16;3.10;;;2.90;;
9809;SDS011;4944;52.514;13.192;2023-07-29T11:10:44;6.63;;;3.07;;
9809;SDS011;4944;52.514;13.192;2023-07-29T11:13:27;4.67;;;3.20;;
9809;SDS011;4944;52.514;13.192;2023-07-29T11:15:54;5.43;;;3.20;;
9809;SDS011;4944;52.514;13.192;2023-07-29T11:18:23;4.20;;;3.57;;
9809;SDS011;4944;52.514;13.192;2023-07-29T11:20:53;4.33;;;3.57;;
9809;SDS011;4944;52.514;13.192;2023-07-29T11:23:20;4.67;;;4.03;;
9809;SDS011;4944;52.514;13.192;2023-07-29T11:25:54;4.63;;;4.33;;
9809;SDS011;4944;52.514;13.192;2023-07-29T11:28:21;5.83;;;4.27;;
9809;SDS011;4944;52.514;13.192;2023-07-29T11:30:50;7.40;;;4.93;;
9809;SDS011;4944;52.514;13.192;2023-07-29T11:33:18;6.00;;;5.07;;
9809;SDS011;4944;52.514;13.192;2023-07-29T11:35:46;6.20;;;5.50;;
9809;SDS011;4944;52.514;13.192;2023-07-29T11:38:14;6.43;;;5.93;;
9809;SDS011;4944;52.514;13.192;2023-07-29T11:40:42;6.20;;;5.70;;
9809;SDS011;4944;52.514;13.192;2023-07-29T11:43:09;4.10;;;3.80;;
9809;SDS011;4944;52.514;13.192;2023-07-29T11:45:43;4.53;;;3.83;;
9809;SDS011;4944;52.514;13.192;2023-07-29T11:48:12;4.60;;;4.30;;
9809;SDS011;4944;52.514;13.192;2023-07-29T11:50:39;5.20;;;4.80;;
9809;SDS011;4944;52.514;13.192;2023-07-29T11:53:06;5.87;;;5.37;;
9809;SDS011;4944;52.514;13.192;2023-07-29T11:55:33;8.03;;;5.90;;
9809;SDS011;4944;52.514;13.192;2023-07-29T11:58:00;6.40;;;5.87;;
9809;SDS011;4944;52.514;13.192;2023-07-29T12:00:27;5.57;;;5.23;;
9809;SDS011;4944;52.514;13.192;2023-07-29T12:02:55;5.73;;;5.13;;
9809;SDS011;4944;52.514;13.192;2023-07-29T12:05:24;4.90;;;4.60;;
9809;SDS011;4944;52.514;13.192;2023-07-29T12:07:51;4.97;;;4.63;;
9809;SDS011;4944;52.514;13.192;2023-07-29T12:10:18;5.00;;;4.53;;
9809;SDS011;4944;52.514;13.192;2023-07-29T12:12:47;4.27;;;4.07;;
9809;SDS011;4944;52.514;13.192;2023-07-29T12:15:22;4.27;;;3.87;;
9809;SDS011;4944;52.514;13.192;2023-07-29T12:17:51;4.20;;;3.80;;
9809;SDS011;4944;52.514;13.192;2023-07-29T12:20:19;4.57;;;4.27;;
9809;SDS011;4944;52.514;13.192;2023-07-29T12:22:52;5.43;;;4.93;;
9809;SDS011;4944;52.514;13.192;2023-07-29T12:25:20;5.27;;;4.80;;
9809;SDS011;4944;52.514;13.192;2023-07-29T12:27:48;4.67;;;4.27;;
9809;SDS011;4944;52.514;13.192;2023-07-29T12:30:14;4.93;;;4.40;;
9809;SDS011;4944;52.514;13.192;2023-07-29T12:32:43;4.70;;;4.33;;
9809;SDS011;4944;52.514;13.192;2023-07-29T12:35:11;5.30;;;5.00;;
9809;SDS011;4944;52.514;13.192;2023-07-29T12:37:38;5.37;;;4.97;;
9809;SDS011;4944;52.514;13.192;2023-07-29T12:40:19;4.67;;;4.27;;
9809;SDS011;4944;52.514;13.192;2023-07-29T12:42:48;4.90;;;4.57;;
9809;SDS011;4944;52.514;13.192;2023-07-29T12:45:15;9.07;;;5.20;;
9809;SDS011;4944;52.514;13.192;2023-07-29T12:47:42;5.63;;;5.13;;
9809;SDS011;4944;52.514;13.192;2023-07-29T12:50:09;4.90;;;4.35;;
9809;SDS011;4944;52.514;13.192;2023-07-29T12:52:36;4.13;;;3.87;;
9809;SDS011;4944;52.514;13.192;2023-07-29T12:55:03;4.80;;;4.40;;
9809;SDS011;4944;52.514;13.192;2023-07-29T12:57:34;4.38;;;4.05;;
9809;SDS011;4944;52.514;13.192;2023-07-29T13:00:02;3.70;;;3.50;;
9809;SDS011;4944;52.514;13.192;2023-07-29T13:02:29;3.30;;;3.08;;
9809;SDS011;4944;52.514;13.192;2023-07-29T13:04:56;2.92;;;2.75;;
9809;SDS011;4944;52.514;13.192;2023-07-29T13:07:23;4.50;;;4.07;;
9809;SDS011;4944;52.514;13.192;2023-07-29T13:09:50;3.20;;;3.10;;
9809;SDS011;4944;52.514;13.192;2023-07-29T13:12:17;3.72;;;3.42;;
9809;SDS011;4944;52.514;13.192;2023-07-29T13:14:45;4.50;;;4.10;;
9809;SDS011;4944;52.514;13.192;2023-07-29T13:17:12;3.10;;;2.90;;
9809;SDS011;4944;52.514;13.192;2023-07-29T13:19:39;2.90;;;2.80;;
9809;SDS011;4944;52.514;13.192;2023-07-29T13:22:05;3.20;;;3.00;;
9809;SDS011;4944;52.514;13.192;2023-07-29T13:24:32;2.63;;;2.53;;
9809;SDS011;4944;52.514;13.192;2023-07-29T13:26:59;2.65;;;2.55;;
9809;SDS011;4944;52.514;13.192;2023-07-29T13:29:26;3.08;;;2.90;;
9809;SDS011;4944;52.514;13.192;2023-07-29T13:31:54;2.42;;;2.33;;
9809;SDS011;4944;52.514;13.192;2023-07-29T13:34:21;1.80;;;1.73;;
9809;SDS011;4944;52.514;13.192;2023-07-29T13:36:48;1.70;;;1.70;;
9809;SDS011;4944;52.514;13.192;2023-07-29T13:39:15;1.60;;;1.50;;
9809;SDS011;4944;52.514;13.192;2023-07-29T13:41:42;1.33;;;1.33;;
9809;SDS011;4944;52.514;13.192;2023-07-29T13:44:09;2.35;;;1.50;;
9809;SDS011;4944;52.514;13.192;2023-07-29T13:46:35;1.00;;;1.00;;
9809;SDS011;4944;52.514;13.192;2023-07-29T13:49:04;0.73;;;0.73;;
9809;SDS011;4944;52.514;13.192;2023-07-29T13:51:30;0.90;;;0.90;;
9809;SDS011;4944;52.514;13.192;2023-07-29T13:53:57;1.40;;;1.30;;
9809;SDS011;4944;52.514;13.192;2023-07-29T13:56:24;1.20;;;1.20;;
9809;SDS011;4944;52.514;13.192;2023-07-29T13:58:51;1.10;;;1.10;;
9809;SDS011;4944;52.514;13.192;2023-07-29T14:01:18;0.95;;;0.95;;
9809;SDS011;4944;52.514;13.192;2023-07-29T14:03:45;1.30;;;1.20;;
9809;SDS011;4944;52.514;13.192;2023-07-29T14:06:13;1.10;;;1.10;;
9809;SDS011;4944;52.514;13.192;2023-07-29T14:08:40;1.17;;;1.17;;
9809;SDS011;4944;52.514;13.192;2023-07-29T14:11:07;1.27;;;1.17;;
9809;SDS011;4944;52.514;13.192;2023-07-29T14:13:34;1.27;;;1.27;;
9809;SDS011;4944;52.514;13.192;2023-07-29T14:16:01;1.20;;;1.20;;
9809;SDS011;4944;52.514;13.192;2023-07-29T14:18:28;1.00;;;1.00;;
9809;SDS011;4944;52.514;13.192;2023-07-29T14:20:56;1.30;;;1.20;;
9809;SDS011;4944;52.514;13.192;2023-07-29T14:23:24;1.30;;;1.20;;
9809;SDS011;4944;52.514;13.192;2023-07-29T14:25:51;1.48;;;1.38;;
9809;SDS011;4944;52.514;13.192;2023-07-29T14:28:18;1.77;;;1.40;;
9809;SDS011;4944;52.514;13.192;2023-07-29T14:30:46;1.50;;;1.40;;
9809;SDS011;4944;52.514;13.192;2023-07-29T14:33:12;1.30;;;1.20;;
9809;SDS011;4944;52.514;13.192;2023-07-29T14:35:39;1.40;;;1.40;;
9809;SDS011;4944;52.514;13.192;2023-07-29T14:38:06;3.40;;;3.20;;
9809;SDS011;4944;52.514;13.192;2023-07-29T14:40:34;4.72;;;4.32;;
9809;SDS011;4944;52.514;13.192;2023-07-29T14:43:01;1.48;;;1.45;;
9809;SDS011;4944;52.514;13.192;2023-07-29T14:45:28;1.30;;;1.30;;
9809;SDS011;4944;52.514;13.192;2023-07-29T14:47:55;1.50;;;1.50;;
9809;SDS011;4944;52.514;13.192;2023-07-29T14:50:22;1.50;;;1.40;;
9809;SDS011;4944;52.514;13.192;2023-07-29T14:52:49;1.27;;;1.13;;
9809;SDS011;4944;52.514;13.192;2023-07-29T14:55:16;1.20;;;1.20;;
9809;SDS011;4944;52.514;13.192;2023-07-29T14:57:44;1.45;;;1.38;;
9809;SDS011;4944;52.514;13.192;2023-07-29T15:00:11;1.20;;;1.20;;
9809;SDS011;4944;52.514;13.192;2023-07-29T15:02:39;1.40;;;1.30;;
9809;SDS011;4944;52.514;13.192;2023-07-29T15:05:07;1.30;;;1.20;;